sensor_id;sensor_type;location;lat;lon;timestamp;pressure;altitude;pressure_sealevel;temperature;humidity
65280;BME280;51878;55.748;48.742;2023-08-06T00:04:45;99340.31;;;19.57;100.00
65280;BME280;51878;55.748;48.742;2023-08-06T00:09:47;99362.16;;;19.64;100.00
65280;BME280;51878;55.748;48.742;2023-08-06T00:14:53;99407.19;;;19.87;100.00
65280;BME280;51878;55.748;48.742;2023-08-06T00:19:55;99372.22;;;19.70;100.00
65280;BME280;51878;55.748;48.742;2023-08-06T00:24:57;99338.00;;;19.49;100.00
65280;BME280;51878;55.748;48.742;2023-08-06T00:30:00;99399.16;;;19.85;100.00
65280;BME280;51878;55.748;48.742;2023-08-06T00:35:06;99369.50;;;19.58;100.00
65280;BME280;51878;55.748;48.742;2023-08-06T00:40:09;99409.50;;;19.78;100.00
65280;BME280;51878;55.748;48.742;2023-08-06T00:45:11;99406.75;;;19.78;100.00
65280;BME280;51878;55.748;48.742;2023-08-06T00:50:13;99393.53;;;19.63;100.00
65280;BME280;51878;55.748;48.742;2023-08-06T00:55:16;99412.88;;;19.68;100.00
65280;BME280;51878;55.748;48.742;2023-08-06T01:00:19;99368.88;;;19.39;100.00
65280;BME280;51878;55.748;48.742;2023-08-06T01:05:25;99342.59;;;19.15;100.00
65280;BME280;51878;55.748;48.742;2023-08-06T01:16:01;99365.75;;;19.19;100.00
65280;BME280;51878;55.748;48.742;2023-08-06T01:21:05;99381.34;;;19.30;100.00
65280;BME280;51878;55.748;48.742;2023-08-06T01:26:15;99394.13;;;19.36;100.00
65280;BME280;51878;55.748;48.742;2023-08-06T01:31:29;99420.09;;;19.57;100.00
65280;BME280;51878;55.748;48.742;2023-08-06T01:36:33;99430.19;;;19.69;100.00
65280;BME280;51878;55.748;48.742;2023-08-06T01:41:35;99383.97;;;19.37;100.00
65280;BME280;51878;55.748;48.742;2023-08-06T01:46:38;99423.78;;;19.63;100.00
65280;BME280;51878;55.748;48.742;2023-08-06T01:51:40;99412.84;;;19.51;100.00
65280;BME280;51878;55.748;48.742;2023-08-06T01:56:42;99443.63;;;19.65;100.00
65280;BME280;51878;55.748;48.742;2023-08-06T02:01:45;99436.13;;;19.60;100.00
65280;BME280;51878;55.748;48.742;2023-08-06T02:06:47;99407.06;;;19.36;100.00
65280;BME280;51878;55.748;48.742;2023-08-06T02:11:49;99403.44;;;19.35;100.00
65280;BME280;51878;55.748;48.742;2023-08-06T02:16:52;99440.53;;;19.61;100.00
65280;BME280;51878;55.748;48.742;2023-08-06T02:21:54;99448.63;;;19.68;100.00
65280;BME280;51878;55.748;48.742;2023-08-06T02:26:56;99454.28;;;19.73;100.00
65280;BME280;51878;55.748;48.742;2023-08-06T02:31:58;99457.03;;;19.90;100.00
65280;BME280;51878;55.748;48.742;2023-08-06T02:37:03;99448.31;;;19.93;100.00
65280;BME280;51878;55.748;48.742;2023-08-06T02:42:09;99448.91;;;19.95;100.00
65280;BME280;51878;55.748;48.742;2023-08-06T02:47:11;99409.50;;;19.78;100.00
65280;BME280;51878;55.748;48.742;2023-08-06T02:52:13;99390.53;;;19.65;100.00
65280;BME280;51878;55.748;48.742;2023-08-06T02:57:15;99469.41;;;20.21;100.00
65280;BME280;51878;55.748;48.742;2023-08-06T03:02:18;99444.47;;;20.11;100.00
65280;BME280;51878;55.748;48.742;2023-08-06T03:07:20;99474.59;;;20.35;100.00
65280;BME280;51878;55.748;48.742;2023-08-06T03:12:22;99480.44;;;20.55;100.00
65280;BME280;51878;55.748;48.742;2023-08-06T03:17:24;99424.47;;;20.33;100.00
65280;BME280;51878;55.748;48.742;2023-08-06T03:22:27;99418.34;;;20.48;100.00
65280;BME280;51878;55.748;48.742;2023-08-06T03:27:29;99469.81;;;20.81;100.00
65280;BME280;51878;55.748;48.742;2023-08-06T03:32:31;99483.41;;;21.04;100.00
65280;BME280;51878;55.748;48.742;2023-08-06T03:37:34;99377.28;;;20.46;100.00
65280;BME280;51878;55.748;48.742;2023-08-06T03:47:38;99473.69;;;21.19;100.00
65280;BME280;51878;55.748;48.742;2023-08-06T03:52:40;99384.75;;;20.68;100.00
65280;BME280;51878;55.748;48.742;2023-08-06T03:57:42;99453.72;;;21.12;100.00
65280;BME280;51878;55.748;48.742;2023-08-06T04:02:45;99485.94;;;21.50;100.00
65280;BME280;51878;55.748;48.742;2023-08-06T04:07:47;99469.19;;;21.57;100.00
65280;BME280;51878;55.748;48.742;2023-08-06T04:12:49;99481.97;;;21.90;100.00
65280;BME280;51878;55.748;48.742;2023-08-06T04:17:52;99488.50;;;22.11;100.00
65280;BME280;51878;55.748;48.742;2023-08-06T04:22:54;99475.06;;;22.20;100.00
65280;BME280;51878;55.748;48.742;2023-08-06T04:27:57;99499.16;;;22.57;100.00
65280;BME280;51878;55.748;48.742;2023-08-06T04:32:59;99480.75;;;22.73;100.00
65280;BME280;51878;55.748;48.742;2023-08-06T04:38:02;99504.25;;;23.07;100.00
65280;BME280;51878;55.748;48.742;2023-08-06T04:43:04;99466.63;;;23.06;100.00
65280;BME280;51878;55.748;48.742;2023-08-06T04:48:06;99469.81;;;23.36;100.00
65280;BME280;51878;55.748;48.742;2023-08-06T04:53:09;99492.06;;;23.61;100.00
65280;BME280;51878;55.748;48.742;2023-08-06T04:58:12;99512.91;;;23.84;100.00
65280;BME280;51878;55.748;48.742;2023-08-06T05:03:17;99451.63;;;23.65;100.00
65280;BME280;51878;55.748;48.742;2023-08-06T05:08:19;99512.97;;;24.20;100.00
65280;BME280;51878;55.748;48.742;2023-08-06T05:13:21;99407.06;;;23.67;99.51
65280;BME280;51878;55.748;48.742;2023-08-06T05:18:26;99505.53;;;24.51;97.50
65280;BME280;51878;55.748;48.742;2023-08-06T05:23:29;99504.97;;;24.75;95.96
65280;BME280;51878;55.748;48.742;2023-08-06T05:28:31;99475.31;;;24.70;94.75
65280;BME280;51878;55.748;48.742;2023-08-06T05:33:33;99490.53;;;24.88;91.00
65280;BME280;51878;55.748;48.742;2023-08-06T05:38:35;99504.69;;;24.92;90.95
65280;BME280;51878;55.748;48.742;2023-08-06T05:43:39;99473.88;;;24.93;92.33
65280;BME280;51878;55.748;48.742;2023-08-06T05:48:44;99450.84;;;24.93;89.26
65280;BME280;51878;55.748;48.742;2023-08-06T05:53:46;99471.88;;;25.14;87.34
65280;BME280;51878;55.748;48.742;2023-08-06T05:58:51;99474.06;;;25.38;85.17
65280;BME280;51878;55.748;48.742;2023-08-06T06:03:55;99488.63;;;25.69;84.50
65280;BME280;51878;55.748;48.742;2023-08-06T06:08:57;99479.22;;;25.60;85.26
65280;BME280;51878;55.748;48.742;2023-08-06T06:14:02;99393.34;;;25.09;81.49
65280;BME280;51878;55.748;48.742;2023-08-06T06:19:05;99488.56;;;25.74;84.86
65280;BME280;51878;55.748;48.742;2023-08-06T06:24:10;99436.66;;;25.70;83.25
65280;BME280;51878;55.748;48.742;2023-08-06T06:29:12;99471.22;;;26.37;79.08
65280;BME280;51878;55.748;48.742;2023-08-06T06:34:14;99412.16;;;26.51;74.73
65280;BME280;51878;55.748;48.742;2023-08-06T06:39:17;99440.28;;;27.03;71.37
65280;BME280;51878;55.748;48.742;2023-08-06T06:44:20;99479.53;;;27.73;70.23
65280;BME280;51878;55.748;48.742;2023-08-06T06:49:23;99351.22;;;27.46;64.51
65280;BME280;51878;55.748;48.742;2023-08-06T06:54:25;99429.69;;;28.42;59.74
65280;BME280;51878;55.748;48.742;2023-08-06T06:59:27;99454.00;;;28.89;55.74
65280;BME280;51878;55.748;48.742;2023-08-06T07:04:29;99458.19;;;29.33;54.18
65280;BME280;51878;55.748;48.742;2023-08-06T07:09:32;99421.22;;;29.36;52.09
65280;BME280;51878;55.748;48.742;2023-08-06T07:14:34;99434.94;;;29.88;49.61
65280;BME280;51878;55.748;48.742;2023-08-06T07:19:36;99442.00;;;30.07;45.71
65280;BME280;51878;55.748;48.742;2023-08-06T07:24:39;99424.88;;;30.09;44.30
65280;BME280;51878;55.748;48.742;2023-08-06T07:29:41;99438.19;;;30.26;43.86
65280;BME280;51878;55.748;48.742;2023-08-06T07:34:43;99417.88;;;30.20;42.11
65280;BME280;51878;55.748;48.742;2023-08-06T07:39:46;99429.78;;;30.48;42.07
65280;BME280;51878;55.748;48.742;2023-08-06T07:44:55;99441.06;;;30.88;40.46
65280;BME280;51878;55.748;48.742;2023-08-06T07:49:57;99432.41;;;30.99;40.38
65280;BME280;51878;55.748;48.742;2023-08-06T07:55:00;99454.88;;;31.16;39.90
65280;BME280;51878;55.748;48.742;2023-08-06T08:00:05;99450.88;;;31.57;39.81
65280;BME280;51878;55.748;48.742;2023-08-06T08:05:08;99428.63;;;31.52;37.22
65280;BME280;51878;55.748;48.742;2023-08-06T08:10:10;99424.69;;;31.53;37.97
65280;BME280;51878;55.748;48.742;2023-08-06T08:15:12;99433.94;;;31.88;37.85
65280;BME280;51878;55.748;48.742;2023-08-06T08:20:16;99442.22;;;32.11;37.50
65280;BME280;51878;55.748;48.742;2023-08-06T08:25:18;99440.53;;;32.45;37.41
65280;BME280;51878;55.748;48.742;2023-08-06T08:30:21;99439.47;;;32.84;36.82
65280;BME280;51878;55.748;48.742;2023-08-06T08:35:23;99436.91;;;33.09;34.96
65280;BME280;51878;55.748;48.742;2023-08-06T08:40:31;99437.06;;;33.12;35.52
65280;BME280;51878;55.748;48.742;2023-08-06T08:45:34;99443.22;;;33.35;34.71
65280;BME280;51878;55.748;48.742;2023-08-06T08:50:40;99401.13;;;33.48;34.79
65280;BME280;51878;55.748;48.742;2023-08-06T08:55:47;99413.91;;;33.45;34.31
65280;BME280;51878;55.748;48.742;2023-08-06T09:00:50;99405.41;;;33.54;33.58
65280;BME280;51878;55.748;48.742;2023-08-06T09:05:54;99436.66;;;34.03;32.56
65280;BME280;51878;55.748;48.742;2023-08-06T09:11:00;99395.28;;;33.83;32.22
65280;BME280;51878;55.748;48.742;2023-08-06T09:16:03;99394.19;;;33.96;32.57
65280;BME280;51878;55.748;48.742;2023-08-06T09:21:06;99434.47;;;34.63;32.02
65280;BME280;51878;55.748;48.742;2023-08-06T09:26:20;99385.78;;;34.75;30.94
65280;BME280;51878;55.748;48.742;2023-08-06T09:31:22;99436.06;;;35.47;30.17
65280;BME280;51878;55.748;48.742;2023-08-06T09:36:25;99392.81;;;35.67;29.47
65280;BME280;51878;55.748;48.742;2023-08-06T09:41:27;99428.69;;;35.54;29.24
65280;BME280;51878;55.748;48.742;2023-08-06T09:46:32;99384.03;;;35.32;29.26
65280;BME280;51878;55.748;48.742;2023-08-06T09:51:35;99377.94;;;36.11;29.09
65280;BME280;51878;55.748;48.742;2023-08-06T09:56:42;99419.16;;;37.16;28.14
65280;BME280;51878;55.748;48.742;2023-08-06T10:01:45;99405.09;;;37.03;27.87
65280;BME280;51878;55.748;48.742;2023-08-06T10:06:48;99399.72;;;36.83;28.12
65280;BME280;51878;55.748;48.742;2023-08-06T10:11:51;99393.94;;;37.42;26.97
65280;BME280;51878;55.748;48.742;2023-08-06T10:16:57;99394.53;;;37.87;26.17
65280;BME280;51878;55.748;48.742;2023-08-06T10:22:11;99401.34;;;37.31;26.99
65280;BME280;51878;55.748;48.742;2023-08-06T10:27:13;99358.19;;;37.54;27.11
65280;BME280;51878;55.748;48.742;2023-08-06T10:32:16;99336.66;;;38.04;25.99
65280;BME280;51878;55.748;48.742;2023-08-06T10:37:20;99378.78;;;39.17;25.28
65280;BME280;51878;55.748;48.742;2023-08-06T10:42:29;99381.19;;;39.42;24.42
65280;BME280;51878;55.748;48.742;2023-08-06T10:47:40;99321.31;;;39.24;23.92
65280;BME280;51878;55.748;48.742;2023-08-06T10:52:48;99310.34;;;39.49;23.32
65280;BME280;51878;55.748;48.742;2023-08-06T10:57:54;99369.00;;;40.32;22.07
65280;BME280;51878;55.748;48.742;2023-08-06T11:02:57;99360.50;;;40.77;21.67
65280;BME280;51878;55.748;48.742;2023-08-06T11:08:32;99362.59;;;40.05;22.57
65280;BME280;51878;55.748;48.742;2023-08-06T11:13:35;99348.44;;;40.12;22.30
65280;BME280;51878;55.748;48.742;2023-08-06T11:18:37;99320.97;;;40.23;22.84
65280;BME280;51878;55.748;48.742;2023-08-06T11:23:42;99338.81;;;41.06;21.77
65280;BME280;51878;55.748;48.742;2023-08-06T11:28:45;99349.56;;;41.34;21.75
65280;BME280;51878;55.748;48.742;2023-08-06T11:33:49;99272.13;;;41.07;21.22
65280;BME280;51878;55.748;48.742;2023-08-06T11:38:51;99324.00;;;42.61;19.79
65280;BME280;51878;55.748;48.742;2023-08-06T11:43:54;99352.69;;;44.03;18.94
65280;BME280;51878;55.748;48.742;2023-08-06T11:48:59;99341.88;;;44.36;17.83
65280;BME280;51878;55.748;48.742;2023-08-06T11:54:01;99302.41;;;44.17;17.60
65280;BME280;51878;55.748;48.742;2023-08-06T11:59:04;99322.63;;;44.40;17.42
65280;BME280;51878;55.748;48.742;2023-08-06T12:04:07;99304.72;;;44.32;17.27
65280;BME280;51878;55.748;48.742;2023-08-06T12:09:09;99300.19;;;44.39;16.82
65280;BME280;51878;55.748;48.742;2023-08-06T12:14:12;99323.25;;;44.69;16.57
65280;BME280;51878;55.748;48.742;2023-08-06T12:19:14;99269.47;;;45.33;15.77
65280;BME280;51878;55.748;48.742;2023-08-06T12:24:17;99284.19;;;45.69;16.27
65280;BME280;51878;55.748;48.742;2023-08-06T12:29:19;99283.81;;;45.33;16.42
65280;BME280;51878;55.748;48.742;2023-08-06T12:34:21;99308.44;;;42.26;19.01
65280;BME280;51878;55.748;48.742;2023-08-06T12:39:26;99299.81;;;41.10;20.77
65280;BME280;51878;55.748;48.742;2023-08-06T12:44:31;99301.34;;;41.66;20.62
65280;BME280;51878;55.748;48.742;2023-08-06T12:49:33;99272.53;;;43.37;18.44
65280;BME280;51878;55.748;48.742;2023-08-06T12:54:35;99308.88;;;43.22;18.76
65280;BME280;51878;55.748;48.742;2023-08-06T12:59:41;99293.50;;;40.83;20.06
65280;BME280;51878;55.748;48.742;2023-08-06T13:04:45;99271.25;;;39.09;22.02
65280;BME280;51878;55.748;48.742;2023-08-06T13:09:48;99224.66;;;39.74;21.87
65280;BME280;51878;55.748;48.742;2023-08-06T13:14:50;99285.28;;;42.67;19.66
65280;BME280;51878;55.748;48.742;2023-08-06T13:19:54;99259.41;;;44.27;17.87
65280;BME280;51878;55.748;48.742;2023-08-06T13:24:57;99273.50;;;45.01;17.27
65280;BME280;51878;55.748;48.742;2023-08-06T13:29:59;99225.44;;;45.85;15.74
65280;BME280;51878;55.748;48.742;2023-08-06T13:35:01;99246.09;;;46.27;15.84
65280;BME280;51878;55.748;48.742;2023-08-06T13:40:05;99284.00;;;46.42;15.94
65280;BME280;51878;55.748;48.742;2023-08-06T13:45:07;99286.03;;;46.41;15.59
65280;BME280;51878;55.748;48.742;2023-08-06T13:50:10;99289.47;;;47.03;15.85
65280;BME280;51878;55.748;48.742;2023-08-06T13:55:12;99262.31;;;47.08;14.47
65280;BME280;51878;55.748;48.742;2023-08-06T14:00:14;99285.09;;;47.18;14.74
65280;BME280;51878;55.748;48.742;2023-08-06T14:05:17;99277.25;;;46.52;15.43
65280;BME280;51878;55.748;48.742;2023-08-06T14:10:19;99283.22;;;46.61;15.02
65280;BME280;51878;55.748;48.742;2023-08-06T14:15:21;99236.06;;;45.19;16.44
65280;BME280;51878;55.748;48.742;2023-08-06T14:20:27;99263.09;;;45.52;15.81
65280;BME280;51878;55.748;48.742;2023-08-06T14:25:29;99276.28;;;45.08;16.84
65280;BME280;51878;55.748;48.742;2023-08-06T14:30:32;99237.84;;;43.42;17.95
65280;BME280;51878;55.748;48.742;2023-08-06T14:35:35;99237.91;;;43.31;18.27
65280;BME280;51878;55.748;48.742;2023-08-06T14:40:37;99277.47;;;43.29;18.59
65280;BME280;51878;55.748;48.742;2023-08-06T14:45:41;99276.75;;;42.89;19.11
65280;BME280;51878;55.748;48.742;2023-08-06T14:50:43;99236.41;;;42.44;18.93
65280;BME280;51878;55.748;48.742;2023-08-06T14:55:46;99264.88;;;42.29;19.53
65280;BME280;51878;55.748;48.742;2023-08-06T15:00:48;99274.47;;;41.57;20.31
65280;BME280;51878;55.748;48.742;2023-08-06T15:05:50;99216.53;;;40.61;20.76
65280;BME280;51878;55.748;48.742;2023-08-06T15:10:53;99227.91;;;40.61;20.97
65280;BME280;51878;55.748;48.742;2023-08-06T15:15:55;99248.28;;;40.22;21.58
65280;BME280;51878;55.748;48.742;2023-08-06T15:20:57;99276.25;;;38.92;22.76
65280;BME280;51878;55.748;48.742;2023-08-06T15:26:00;99228.03;;;37.54;24.33
65280;BME280;51878;55.748;48.742;2023-08-06T15:31:02;99231.16;;;36.58;25.75
65280;BME280;51878;55.748;48.742;2023-08-06T15:36:07;99246.53;;;35.69;27.25
65280;BME280;51878;55.748;48.742;2023-08-06T15:41:09;99273.66;;;34.81;28.63
65280;BME280;51878;55.748;48.742;2023-08-06T15:46:11;99283.72;;;33.66;30.46
65280;BME280;51878;55.748;48.742;2023-08-06T15:51:14;99229.00;;;32.41;31.33
65280;BME280;51878;55.748;48.742;2023-08-06T15:56:16;99272.13;;;31.54;33.61
65280;BME280;51878;55.748;48.742;2023-08-06T16:01:18;99201.13;;;30.49;34.32
65280;BME280;51878;55.748;48.742;2023-08-06T16:06:20;99280.19;;;30.23;35.85
65280;BME280;51878;55.748;48.742;2023-08-06T16:11:23;99280.81;;;29.66;37.05
65280;BME280;51878;55.748;48.742;2023-08-06T16:16:25;99265.97;;;29.07;38.21
65280;BME280;51878;55.748;48.742;2023-08-06T16:21:27;99285.41;;;28.62;39.46
65280;BME280;51878;55.748;48.742;2023-08-06T16:26:31;99289.34;;;28.14;40.20
65280;BME280;51878;55.748;48.742;2023-08-06T16:31:33;99290.56;;;27.75;41.29
65280;BME280;51878;55.748;48.742;2023-08-06T16:36:36;99289.81;;;27.37;42.46
65280;BME280;51878;55.748;48.742;2023-08-06T16:41:38;99289.53;;;26.95;43.78
65280;BME280;51878;55.748;48.742;2023-08-06T16:46:40;99286.41;;;26.59;45.86
65280;BME280;51878;55.748;48.742;2023-08-06T16:51:43;99283.16;;;26.23;46.98
65280;BME280;51878;55.748;48.742;2023-08-06T16:56:45;99301.66;;;26.08;48.07
65280;BME280;51878;55.748;48.742;2023-08-06T17:01:47;99256.25;;;25.54;49.13
65280;BME280;51878;55.748;48.742;2023-08-06T17:06:53;99279.94;;;25.42;49.94
65280;BME280;51878;55.748;48.742;2023-08-06T17:11:55;99247.78;;;24.96;51.15
65280;BME280;51878;55.748;48.742;2023-08-06T17:16:57;99297.94;;;25.05;52.63
65280;BME280;51878;55.748;48.742;2023-08-06T17:22:00;99292.78;;;24.83;53.91
65280;BME280;51878;55.748;48.742;2023-08-06T17:27:03;99277.91;;;24.58;55.61
65280;BME280;51878;55.748;48.742;2023-08-06T17:32:05;99317.28;;;24.65;56.76
65280;BME280;51878;55.748;48.742;2023-08-06T17:37:09;99291.56;;;24.34;58.21
65280;BME280;51878;55.748;48.742;2023-08-06T17:42:11;99305.41;;;24.29;58.56
65280;BME280;51878;55.748;48.742;2023-08-06T17:47:14;99287.44;;;24.11;59.02
65280;BME280;51878;55.748;48.742;2023-08-06T17:52:31;99306.56;;;24.12;59.93
65280;BME280;51878;55.748;48.742;2023-08-06T17:57:34;99230.16;;;23.55;60.79
65280;BME280;51878;55.748;48.742;2023-08-06T18:02:36;99321.81;;;23.95;61.14
65280;BME280;51878;55.748;48.742;2023-08-06T18:07:38;99245.38;;;23.42;61.60
65280;BME280;51878;55.748;48.742;2023-08-06T18:12:42;99309.34;;;23.77;62.24
65280;BME280;51878;55.748;48.742;2023-08-06T18:17:45;99286.63;;;23.59;62.92
65280;BME280;51878;55.748;48.742;2023-08-06T18:22:48;99316.78;;;23.61;62.99
65280;BME280;51878;55.748;48.742;2023-08-06T18:27:51;99257.00;;;23.24;64.26
65280;BME280;51878;55.748;48.742;2023-08-06T18:32:54;99310.97;;;23.42;65.04
65280;BME280;51878;55.748;48.742;2023-08-06T18:37:56;99278.00;;;23.15;65.93
65280;BME280;51878;55.748;48.742;2023-08-06T18:43:00;99205.94;;;22.58;66.28
65280;BME280;51878;55.748;48.742;2023-08-06T18:48:03;99314.00;;;23.20;66.89
65280;BME280;51878;55.748;48.742;2023-08-06T18:53:05;99289.81;;;22.95;67.04
65280;BME280;51878;55.748;48.742;2023-08-06T18:58:07;99317.53;;;23.05;66.86
65280;BME280;51878;55.748;48.742;2023-08-06T19:03:11;99267.34;;;22.70;66.81
65280;BME280;51878;55.748;48.742;2023-08-06T19:08:13;99284.53;;;22.78;66.67
65280;BME280;51878;55.748;48.742;2023-08-06T19:13:16;99315.50;;;22.90;66.82
65280;BME280;51878;55.748;48.742;2023-08-06T19:18:18;99264.25;;;22.52;67.32
65280;BME280;51878;55.748;48.742;2023-08-06T19:23:20;99309.66;;;22.76;67.55
65280;BME280;51878;55.748;48.742;2023-08-06T19:28:24;99221.47;;;22.12;67.53
65280;BME280;51878;55.748;48.742;2023-08-06T19:33:27;99302.69;;;22.63;67.26
65280;BME280;51878;55.748;48.742;2023-08-06T19:38:29;99266.38;;;22.34;66.72
65280;BME280;51878;55.748;48.742;2023-08-06T19:43:34;99260.53;;;22.25;66.79
65280;BME280;51878;55.748;48.742;2023-08-06T19:48:36;99311.22;;;22.52;67.21
65280;BME280;51878;55.748;48.742;2023-08-06T19:53:39;99196.66;;;21.69;67.73
65280;BME280;51878;55.748;48.742;2023-08-06T19:58:44;99306.69;;;22.35;67.50
65280;BME280;51878;55.748;48.742;2023-08-06T20:03:46;99305.84;;;22.30;68.88
65280;BME280;51878;55.748;48.742;2023-08-06T20:08:49;99317.97;;;22.28;69.55
65280;BME280;51878;55.748;48.742;2023-08-06T20:13:51;99300.94;;;22.04;70.65
65280;BME280;51878;55.748;48.742;2023-08-06T20:18:53;99308.94;;;22.01;71.22
65280;BME280;51878;55.748;48.742;2023-08-06T20:23:56;99223.41;;;21.36;71.05
65280;BME280;51878;55.748;48.742;2023-08-06T20:28:58;99280.53;;;21.63;71.01
65280;BME280;51878;55.748;48.742;2023-08-06T20:34:01;99317.06;;;21.80;71.37
65280;BME280;51878;55.748;48.742;2023-08-06T20:39:03;99285.16;;;21.57;71.61
65280;BME280;51878;55.748;48.742;2023-08-06T20:44:05;99305.13;;;21.70;72.92
65280;BME280;51878;55.748;48.742;2023-08-06T20:49:07;99318.13;;;21.74;73.45
65280;BME280;51878;55.748;48.742;2023-08-06T20:54:10;99305.59;;;21.61;74.10
65280;BME280;51878;55.748;48.742;2023-08-06T20:59:12;99308.88;;;21.58;74.86
65280;BME280;51878;55.748;48.742;2023-08-06T21:04:14;99274.13;;;21.30;75.24
65280;BME280;51878;55.748;48.742;2023-08-06T21:09:16;99296.03;;;21.42;76.15
65280;BME280;51878;55.748;48.742;2023-08-06T21:14:19;99312.59;;;21.42;77.20
65280;BME280;51878;55.748;48.742;2023-08-06T21:19:21;99321.69;;;21.42;77.46
65280;BME280;51878;55.748;48.742;2023-08-06T21:24:23;99325.75;;;21.35;78.38
65280;BME280;51878;55.748;48.742;2023-08-06T21:29:26;99289.94;;;21.13;78.18
65280;BME280;51878;55.748;48.742;2023-08-06T21:34:31;99298.72;;;21.10;78.57
65280;BME280;51878;55.748;48.742;2023-08-06T21:39:33;99317.31;;;21.19;79.48
65280;BME280;51878;55.748;48.742;2023-08-06T21:44:36;99304.50;;;21.08;79.47
65280;BME280;51878;55.748;48.742;2023-08-06T21:49:38;99308.69;;;21.11;79.58
65280;BME280;51878;55.748;48.742;2023-08-06T21:54:41;99279.47;;;20.88;79.79
65280;BME280;51878;55.748;48.742;2023-08-06T21:59:43;99298.94;;;21.03;79.74
65280;BME280;51878;55.748;48.742;2023-08-06T22:04:45;99308.94;;;21.09;79.41
65280;BME280;51878;55.748;48.742;2023-08-06T22:09:47;99312.22;;;21.06;79.43
65280;BME280;51878;55.748;48.742;2023-08-06T22:14:50;99250.06;;;20.71;79.26
65280;BME280;51878;55.748;48.742;2023-08-06T22:19:52;99305.28;;;21.03;78.99
65280;BME280;51878;55.748;48.742;2023-08-06T22:24:54;99311.88;;;21.02;79.14
65280;BME280;51878;55.748;48.742;2023-08-06T22:29:56;99307.94;;;20.93;79.26
65280;BME280;51878;55.748;48.742;2023-08-06T22:34:59;99317.59;;;20.96;78.74
65280;BME280;51878;55.748;48.742;2023-08-06T22:40:02;99292.13;;;20.83;78.59
65280;BME280;51878;55.748;48.742;2023-08-06T22:45:08;99299.22;;;20.79;78.86
65280;BME280;51878;55.748;48.742;2023-08-06T22:50:11;99317.75;;;20.84;79.04
65280;BME280;51878;55.748;48.742;2023-08-06T22:55:13;99313.25;;;20.78;79.69
65280;BME280;51878;55.748;48.742;2023-08-06T23:00:30;99312.28;;;20.67;79.75
65280;BME280;51878;55.748;48.742;2023-08-06T23:05:33;99266.44;;;20.39;80.11
65280;BME280;51878;55.748;48.742;2023-08-06T23:10:35;99317.56;;;20.69;80.31
65280;BME280;51878;55.748;48.742;2023-08-06T23:15:37;99309.22;;;20.63;80.32
65280;BME280;51878;55.748;48.742;2023-08-06T23:20:39;99281.63;;;20.41;81.25
65280;BME280;51878;55.748;48.742;2023-08-06T23:25:42;99327.53;;;20.53;81.41
65280;BME280;51878;55.748;48.742;2023-08-06T23:30:44;99328.72;;;20.40;82.80
65280;BME280;51878;55.748;48.742;2023-08-06T23:35:51;99327.97;;;20.28;83.74
65280;BME280;51878;55.748;48.742;2023-08-06T23:40:53;99318.16;;;20.15;84.95
65280;BME280;51878;55.748;48.742;2023-08-06T23:45:56;99290.16;;;19.84;86.10
65280;BME280;51878;55.748;48.742;2023-08-06T23:51:00;99309.78;;;19.88;86.71
65280;BME280;51878;55.748;48.742;2023-08-06T23:56:03;99300.91;;;19.69;87.26
